• pl
  • eng

Awiacja
Komunikaty METAR z lotnisk wojskowych. 16:01 22.06.2018

METAR COR EPCE 221430Z 27012KT 230V300 9999 BKN023TCU 16/08
Q1013 RMK 163 058 6/6=

METAR EPDA 221430Z 26012KT 210V290 9999 FEW025 16/10
Q1014 RMK 161 067 2/2=

METAR EPDE 221430Z 29012KT CAVOK 19/03 Q1015 RMK 186 035 6/4=

METAR EPIR 221430Z 21014KT 9999 SCT043 BKN070 18/04 Q1015 RMK 181 039
5/3=

METAR EPKS 221430Z 23008KT 9999 SCT044 16/06 Q1016 RMK 157 053 3/3=

METAR EPLK 221430Z NIL=

METAR EPLY 221430Z 26010KT 9999 BKN050 15/06 Q1017 RMK 151 053 6/6=

METAR EPMB 221430Z NIL=

METAR EPMI 221430Z 26004KT 9999 SCT020 BKN030 12/09 Q1016 RMK 117 084
6/3=

METAR EPMM 221430Z 27014KT CAVOK 19/03 Q1015 RMK 190 034 6/4=

METAR EPNA 221430Z NIL=

METAR EPOK 221430Z 25009KT 210V310 9999 SCT062CB BKN224 17/09
Q1012 RMK 167 059 5/3=

METAR EPPR 221430Z 27012KT 9999 BKN040 18/05 Q1013 RMK 182 043 4/4=

METAR EPPW 221430Z 25010KT 9999 SCT050 17/04 Q1016 RMK 165 044 3/3=

METAR EPSN 221430Z 23008KT 9999 SCT025 BKN040 15/09 Q1015 RMK 146 070
7/4=

METAR EPTM 221430Z 29012KT CAVOK 16/02 Q1016 RMK 164 039 6/4=
 METAR EPTM
Lokalizacja:EPTM Tomaszów Mazowiecki
Czas:14:30 UTC
Średni kierunek wiatru:290 °
Średnia prędkość wiatru:12 węzłów
CAVOK:Widzialność 10 km i więcej, zjawisko: NIL, zachmurzenie: NSC
Temperatura powietrza:16 °C
Temperatura punktu rosy:2 °C
Ciśnienie QNH:1016 hPa
Dokładna temperatura powietrza:16,4 °C
Dokładna wilgotność względna:39 %
Zachmurzenie przez wszystkie piętra chmur:6/8
Zachmurzenie przez chmury niskie:4/8
Awiacja.imgw.pl jest pogodowym serwisem informacyjnym
Instytutu Meteorologii i Gospodarki Wodnej Państwowego Instytutu Badawczego.
Copyright IMGW PIB 2009-2011© Wszelkie prawa zastrzeżone.